Time;durP1;ratioP1;P1;durP2;ratioP2;P2;SDS_P1;SDS_P2;PMS_P1;PMS_P2;Temp;Humidity;BMP_temperature;BMP_pressure;BME280_temperature;BME280_humidity;BME280_pressure;Samples;Min_cycle;Max_cycle;Signal;HPM_P1;HPM_P2
2022/11/14 00:00:55;;;;;;;12.50;11.53;;;;;;;14.96;88.24;100473.00;5033911;28;20140;-67
2022/11/14 00:03:22;;;;;;;14.88;13.65;;;;;;;15.02;88.43;100466.13;5034147;28;20049;-66
2022/11/14 00:05:48;;;;;;;12.52;11.43;;;;;;;15.10;88.31;100479.44;5040772;28;20057;-66
2022/11/14 00:08:18;;;;;;;12.68;11.77;;;;;;;15.15;88.33;100483.00;5032328;28;20064;-66
2022/11/14 00:10:47;;;;;;;13.45;12.50;;;;;;;15.20;88.05;100486.84;5040754;28;20053;-66
2022/11/14 00:13:15;;;;;;;12.48;11.57;;;;;;;15.21;88.17;100478.09;5031774;28;20053;-67
2022/11/14 00:15:44;;;;;;;12.07;11.15;;;;;;;15.21;87.77;100483.72;5044350;28;20052;-66
2022/11/14 00:18:11;;;;;;;12.10;11.38;;;;;;;15.15;88.01;100474.56;5042586;28;20057;-67
2022/11/14 00:20:38;;;;;;;12.10;11.18;;;;;;;15.24;87.87;100480.28;5047099;28;20056;-67
2022/11/14 00:23:05;;;;;;;12.02;11.32;;;;;;;15.24;87.47;100485.91;5037587;28;20049;-67
2022/11/14 00:25:32;;;;;;;12.02;11.13;;;;;;;15.28;87.37;100489.78;5043586;28;20404;-66
2022/11/14 00:27:58;;;;;;;13.02;11.85;;;;;;;15.31;86.91;100485.47;5042708;28;20054;-66
2022/11/14 00:30:27;;;;;;;12.73;11.88;;;;;;;15.29;86.82;100471.75;5036327;28;20435;-67
2022/11/14 00:32:54;;;;;;;12.65;11.73;;;;;;;15.39;87.03;100487.56;5037034;28;20049;-67
2022/11/14 00:35:20;;;;;;;12.40;11.65;;;;;;;15.39;86.80;100482.78;5042255;28;20049;-67
2022/11/14 00:37:47;;;;;;;13.27;12.10;;;;;;;15.34;86.37;100473.59;5034821;28;20056;-67
2022/11/14 00:40:15;;;;;;;13.43;12.45;;;;;;;15.37;86.52;100473.81;5036223;28;20057;-66
2022/11/14 00:42:41;;;;;;;12.55;11.75;;;;;;;15.46;86.81;100487.16;5044672;28;20049;-66
2022/11/14 00:45:09;;;;;;;12.20;11.50;;;;;;;15.49;86.58;100475.25;5042828;28;20041;-66
2022/11/14 00:47:36;;;;;;;15.85;14.52;;;;;;;15.45;86.76;100491.09;5036170;28;20049;-65
2022/11/14 00:50:03;;;;;;;13.15;12.38;;;;;;;15.36;86.21;100471.31;5040853;28;20045;-66
2022/11/14 00:52:30;;;;;;;12.93;11.60;;;;;;;15.38;86.69;100480.25;5032563;28;22376;-66
2022/11/14 00:54:57;;;;;;;12.30;11.50;;;;;;;15.43;86.72;100493.41;5039300;28;20037;-66
2022/11/14 00:57:24;;;;;;;12.32;11.52;;;;;;;15.44;86.53;100486.63;5035222;28;20496;-65
2022/11/14 00:59:52;;;;;;;12.40;11.48;;;;;;;15.50;86.34;100489.00;5037781;28;20046;-67
2022/11/14 01:02:19;;;;;;;12.27;11.15;;;;;;;15.48;86.24;100473.59;5031152;28;20492;-65
2022/11/14 01:04:45;;;;;;;13.68;11.52;;;;;;;15.55;86.39;100473.97;5037147;28;20483;-66
2022/11/14 01:07:12;;;;;;;12.10;11.02;;;;;;;15.54;86.41;100470.34;5038683;28;20065;-66
2022/11/14 01:09:39;;;;;;;11.68;10.75;;;;;;;15.58;86.20;100474.19;5038959;28;20045;-67
2022/11/14 01:12:06;;;;;;;12.10;11.15;;;;;;;15.53;86.18;100465.03;5039579;28;20328;-68
2022/11/14 01:14:32;;;;;;;11.43;10.57;;;;;;;15.50;85.86;100474.94;5033474;28;20049;-69
2022/11/14 01:16:59;;;;;;;12.75;11.60;;;;;;;15.45;85.45;100468.56;5039439;28;20503;-69
2022/11/14 01:19:27;;;;;;;11.63;10.82;;;;;;;15.47;85.59;100486.81;5042906;28;20057;-70
2022/11/14 01:21:54;;;;;;;13.63;11.63;;;;;;;15.38;85.81;100474.63;5049978;28;20041;-69
2022/11/14 01:24:21;;;;;;;11.75;10.88;;;;;;;15.40;85.67;100481.63;5033103;28;20041;-69
2022/11/14 01:26:48;;;;;;;12.15;11.35;;;;;;;15.46;85.88;100496.41;5049364;28;20053;-69
2022/11/14 01:29:14;;;;;;;11.68;10.65;;;;;;;15.45;85.86;100479.84;5042398;28;20105;-68
2022/11/14 01:31:41;;;;;;;12.82;11.65;;;;;;;15.40;85.79;100473.19;5042742;28;20123;-69
2022/11/14 01:34:08;;;;;;;12.60;11.20;;;;;;;15.50;85.65;100488.19;5041375;28;20044;-68
2022/11/14 01:36:35;;;;;;;13.23;12.13;;;;;;;15.43;85.69;100468.09;5042645;28;20060;-68
2022/11/14 01:39:02;;;;;;;13.02;11.63;;;;;;;15.49;85.16;100480.91;5047805;28;20045;-68
2022/11/14 01:41:29;;;;;;;13.52;12.25;;;;;;;15.38;85.29;100475.50;5045567;28;20446;-69
2022/11/14 01:43:56;;;;;;;14.32;13.10;;;;;;;15.17;85.32;100454.53;5046160;28;20041;-70
2022/11/14 01:46:28;;;;;;;12.02;10.40;;;;;;;15.19;85.25;100466.34;5046700;28;20056;-70
2022/11/14 01:49:00;;;;;;;11.77;10.90;;;;;;;15.22;85.33;100476.13;5039332;28;20190;-70
2022/11/14 01:51:35;;;;;;;14.85;13.40;;;;;;;15.15;85.22;100477.38;5041369;28;20059;-72
2022/11/14 01:54:07;;;;;;;11.35;10.43;;;;;;;15.11;85.25;100473.53;5041889;28;20564;-66
2022/11/14 01:56:42;;;;;;;12.32;11.30;;;;;;;15.07;85.08;100475.28;5048785;28;20389;-66
2022/11/14 01:59:12;;;;;;;11.55;10.68;;;;;;;14.93;85.73;100472.47;5048078;28;20045;-69
2022/11/14 02:01:48;;;;;;;14.95;10.40;;;;;;;14.93;85.91;100496.94;5035349;28;20053;-66
2022/11/14 02:04:26;;;;;;;11.27;10.45;;;;;;;14.89;85.75;100490.28;5052004;28;20069;-71
2022/11/14 02:06:57;;;;;;;12.00;11.00;;;;;;;14.87;86.13;100478.50;5048986;28;20045;-72
2022/11/14 02:09:26;;;;;;;11.50;10.73;;;;;;;14.85;86.23;100478.81;5040262;28;20102;-74
2022/11/14 02:11:57;;;;;;;11.85;10.68;;;;;;;14.80;86.24;100478.94;5044774;28;20044;-70
2022/11/14 02:14:26;;;;;;;14.13;13.00;;;;;;;14.77;86.51;100482.38;5038076;28;20499;-69
2022/11/14 02:16:53;;;;;;;11.87;10.87;;;;;;;14.62;86.69;100465.78;5040155;28;20075;-69
2022/11/14 02:19:44;;;;;;;11.77;10.93;;;;;;;14.62;86.85;100468.59;5045465;28;20190;-71
2022/11/14 02:22:11;;;;;;;12.15;11.35;;;;;;;14.52;87.26;100469.59;5041610;28;20045;-69
2022/11/14 02:24:38;;;;;;;13.55;11.00;;;;;;;14.39;87.29;100465.63;5050862;28;20059;-71
2022/11/14 02:27:07;;;;;;;11.68;10.98;;;;;;;14.46;87.15;100460.44;5055873;28;20050;-71
2022/11/14 02:29:34;;;;;;;12.60;11.50;;;;;;;14.51;87.44;100464.31;5072726;28;20051;-72
2022/11/14 02:32:02;;;;;;;13.83;11.00;;;;;;;14.37;87.57;100450.19;5046564;28;20072;-70
2022/11/14 02:34:35;;;;;;;13.00;11.70;;;;;;;14.39;87.46;100468.44;5063172;28;20041;-70
2022/11/14 02:37:03;;;;;;;12.10;11.00;;;;;;;14.44;87.73;100476.75;5034337;28;20050;-70
2022/11/14 02:39:29;;;;;;;14.83;13.83;;;;;;;14.48;87.75;100473.31;5041372;28;20049;-71
2022/11/14 02:41:56;;;;;;;12.40;11.50;;;;;;;14.49;87.36;100480.59;5036941;28;20060;-71
2022/11/14 02:44:23;;;;;;;13.03;11.87;;;;;;;14.50;87.63;100474.72;5042469;28;20697;-71
2022/11/14 02:46:50;;;;;;;12.50;11.40;;;;;;;14.55;87.57;100476.59;5039903;28;20049;-71
2022/11/14 02:49:16;;;;;;;11.97;11.17;;;;;;;14.53;87.35;100470.44;5050971;28;20048;-71
2022/11/14 02:51:43;;;;;;;12.25;10.95;;;;;;;14.57;87.56;100468.69;5057660;28;20048;-71
2022/11/14 02:54:10;;;;;;;12.77;11.60;;;;;;;14.71;87.79;100483.59;5040344;28;20488;-71
2022/11/14 02:56:37;;;;;;;13.10;12.20;;;;;;;14.82;87.53;100484.25;5038658;28;20518;-71
2022/11/14 02:59:04;;;;;;;11.57;10.82;;;;;;;14.86;87.54;100459.97;5047944;28;20044;-71
2022/11/14 03:01:30;;;;;;;13.93;11.05;;;;;;;14.95;87.18;100471.34;5043155;28;20053;-72
2022/11/14 03:03:57;;;;;;;11.10;10.10;;;;;;;14.87;86.80;100459.69;5039211;28;20312;-71
2022/11/14 03:06:24;;;;;;;11.23;10.50;;;;;;;14.89;86.67;100467.78;5043688;28;20041;-73
2022/11/14 03:08:51;;;;;;;12.43;11.20;;;;;;;14.80;86.72;100464.88;5048994;28;20045;-73
2022/11/14 03:11:18;;;;;;;11.43;10.55;;;;;;;14.79;86.79;100473.63;5038546;28;20401;-68
2022/11/14 03:13:44;;;;;;;11.73;10.73;;;;;;;14.71;86.71;100482.78;5045847;28;20048;-69
2022/11/14 03:16:13;;;;;;;12.90;11.60;;;;;;;14.61;86.50;100475.38;5042056;28;20041;-69
2022/11/14 03:18:40;;;;;;;11.57;10.65;;;;;;;14.59;86.37;100492.50;5036927;28;20049;-70
2022/11/14 03:21:08;;;;;;;11.98;10.98;;;;;;;14.56;86.48;100489.50;5043912;28;20064;-69
2022/11/14 03:23:36;;;;;;;11.77;10.95;;;;;;;14.56;86.24;100493.13;5039975;28;20049;-68
2022/11/14 03:26:05;;;;;;;13.35;12.35;;;;;;;14.57;86.33;100482.75;5050852;28;20048;-66
2022/11/14 03:28:32;;;;;;;12.50;11.57;;;;;;;14.48;86.18;100479.78;5048341;28;20048;-67
2022/11/14 03:30:59;;;;;;;12.00;10.95;;;;;;;14.51;86.35;100496.06;5041399;28;20056;-70
2022/11/14 03:33:26;;;;;;;13.07;11.82;;;;;;;14.51;86.01;100483.97;5036811;28;20049;-70
2022/11/14 03:35:53;;;;;;;13.05;11.90;;;;;;;14.59;86.34;100491.69;5034517;28;20050;-70
2022/11/14 03:38:23;;;;;;;11.90;11.00;;;;;;;14.60;86.06;100491.41;5036570;28;20053;-68
2022/11/14 03:40:50;;;;;;;12.80;12.00;;;;;;;14.57;86.42;100482.75;5038601;28;20049;-69
2022/11/14 03:43:19;;;;;;;12.60;11.43;;;;;;;14.66;86.22;100487.31;5051394;28;20052;-74
2022/11/14 03:45:46;;;;;;;12.20;11.20;;;;;;;14.61;86.29;100466.94;5049504;28;20507;-74
2022/11/14 03:48:13;;;;;;;12.95;11.95;;;;;;;14.69;86.20;100472.66;5065957;28;20041;-73
2022/11/14 03:50:42;;;;;;;12.45;11.48;;;;;;;14.65;85.72;100457.56;5054505;28;20117;-73
2022/11/14 03:53:10;;;;;;;13.10;11.95;;;;;;;14.74;85.70;100471.75;5057444;28;20053;-75
2022/11/14 03:55:37;;;;;;;12.43;11.48;;;;;;;14.73;85.41;100470.06;5061469;28;20053;-74
2022/11/14 03:58:04;;;;;;;13.80;12.57;;;;;;;14.76;85.33;100472.25;5045839;28;20068;-74
2022/11/14 04:00:31;;;;;;;12.48;11.55;;;;;;;14.73;85.49;100466.41;5036298;28;20057;-81
2022/11/14 04:02:58;;;;;;;12.05;11.15;;;;;;;14.80;85.27;100486.50;5043461;28;20198;-71
2022/11/14 04:05:25;;;;;;;12.13;11.32;;;;;;;14.81;85.17;100488.19;5037192;28;20041;-71
2022/11/14 04:07:51;;;;;;;12.27;11.38;;;;;;;14.78;85.11;100486.84;5041376;28;20407;-70
2022/11/14 04:10:18;;;;;;;12.02;10.88;;;;;;;14.72;84.77;100471.22;5043006;28;20090;-71
2022/11/14 04:12:52;;;;;;;12.48;11.48;;;;;;;14.68;84.88;100481.41;5032369;28;20068;-68
2022/11/14 04:15:19;;;;;;;12.38;11.20;;;;;;;14.71;84.66;100486.41;5042971;28;20533;-69
2022/11/14 04:17:48;;;;;;;11.90;11.13;;;;;;;14.70;84.62;100487.56;5042641;28;20052;-67
2022/11/14 04:20:15;;;;;;;12.95;11.93;;;;;;;14.66;84.72;100489.31;5031862;28;20056;-68
2022/11/14 04:22:42;;;;;;;12.30;11.30;;;;;;;14.68;84.65;100495.47;5046867;28;20045;-68
2022/11/14 04:25:09;;;;;;;12.18;10.98;;;;;;;14.62;84.87;100485.44;5034875;28;20642;-68
2022/11/14 04:27:35;;;;;;;11.20;10.38;;;;;;;14.61;84.59;100478.16;5036870;28;20046;-66
2022/11/14 04:30:04;;;;;;;11.45;10.50;;;;;;;14.68;84.72;100484.22;5040478;28;20045;-72
2022/11/14 04:32:31;;;;;;;11.20;10.40;;;;;;;14.63;84.52;100493.59;5033830;28;20045;-71
2022/11/14 04:34:57;;;;;;;11.88;10.85;;;;;;;14.69;84.66;100497.94;5042735;28;20056;-71
2022/11/14 04:37:24;;;;;;;10.60;9.90;;;;;;;14.67;84.67;100493.81;5034431;28;20045;-71
2022/11/14 04:39:51;;;;;;;11.98;11.02;;;;;;;14.55;84.79;100473.78;5041350;28;20045;-72
2022/11/14 04:42:18;;;;;;;11.68;10.77;;;;;;;14.65;84.44;100494.09;5050833;28;20057;-72
2022/11/14 04:44:44;;;;;;;11.88;11.02;;;;;;;14.56;84.22;100489.50;5035511;28;20048;-72
2022/11/14 04:47:11;;;;;;;11.90;10.95;;;;;;;14.52;84.45;100499.69;5046930;28;20472;-76
2022/11/14 04:49:38;;;;;;;12.20;11.30;;;;;;;14.37;84.57;100484.75;5048524;28;20068;-76
2022/11/14 04:52:05;;;;;;;12.20;11.25;;;;;;;14.35;84.76;100494.63;5063198;28;20067;-75
2022/11/14 04:54:32;;;;;;;13.00;11.88;;;;;;;14.31;85.10;100500.00;5043054;28;20041;-75
2022/11/14 04:56:58;;;;;;;12.25;11.10;;;;;;;14.26;85.09;100505.72;5050144;28;20048;-76
2022/11/14 04:59:25;;;;;;;11.93;10.93;;;;;;;14.23;85.06;100503.53;5066985;28;20051;-75
2022/11/14 05:01:52;;;;;;;12.93;11.75;;;;;;;14.16;84.98;100495.50;5052184;28;20041;-71
2022/11/14 05:04:19;;;;;;;12.15;11.00;;;;;;;14.21;85.29;100503.00;5056282;28;20056;-71
2022/11/14 05:06:46;;;;;;;12.77;11.57;;;;;;;14.16;85.18;100494.66;5056229;28;20049;-69
2022/11/14 05:09:12;;;;;;;11.30;10.43;;;;;;;14.26;85.47;100511.34;5042455;28;20384;-69
2022/11/14 05:11:39;;;;;;;12.00;11.15;;;;;;;14.19;85.17;100505.28;5047317;28;20445;-71
2022/11/14 05:14:06;;;;;;;11.95;10.85;;;;;;;14.25;85.53;100504.03;5042429;28;20041;-70
2022/11/14 05:16:33;;;;;;;13.43;11.73;;;;;;;14.37;85.88;100518.47;5045045;28;20045;-71
2022/11/14 05:19:00;;;;;;;12.57;11.40;;;;;;;14.49;85.49;100514.31;5049087;28;20057;-70
2022/11/14 05:21:26;;;;;;;12.77;11.73;;;;;;;14.49;85.52;100506.72;5040274;28;20405;-69
2022/11/14 05:23:53;;;;;;;12.33;11.10;;;;;;;14.55;85.57;100507.50;5051000;28;20488;-69
2022/11/14 05:26:20;;;;;;;10.63;9.93;;;;;;;14.58;85.46;100509.69;5049402;28;20041;-70
2022/11/14 05:28:46;;;;;;;12.13;10.93;;;;;;;14.49;85.91;100503.91;5040127;28;20060;-69
2022/11/14 05:31:17;;;;;;;13.13;12.15;;;;;;;14.61;85.98;100511.91;5037123;28;20053;-70
2022/11/14 05:33:45;;;;;;;10.80;10.10;;;;;;;14.48;86.05;100481.75;5053058;28;20040;-70
2022/11/14 05:36:14;;;;;;;12.73;11.63;;;;;;;14.68;86.03;100512.31;5046592;28;20500;-69
2022/11/14 05:38:42;;;;;;;11.95;10.77;;;;;;;14.66;85.88;100515.44;5043402;28;20411;-71
2022/11/14 05:41:11;;;;;;;11.65;10.73;;;;;;;14.57;85.47;100500.44;5050696;28;20053;-70
2022/11/14 05:43:39;;;;;;;12.15;11.02;;;;;;;14.64;85.83;100511.28;5045695;28;20056;-74
2022/11/14 05:46:08;;;;;;;11.27;10.55;;;;;;;14.67;85.54;100513.47;5042456;28;20515;-67
2022/11/14 05:48:36;;;;;;;11.77;10.75;;;;;;;14.64;85.24;100512.13;5035539;28;20057;-69
2022/11/14 05:51:05;;;;;;;11.27;10.18;;;;;;;14.61;85.28;100500.66;5034754;28;20052;-70
2022/11/14 05:53:32;;;;;;;11.93;10.80;;;;;;;14.62;84.88;100496.69;5040023;28;20067;-70
2022/11/14 05:56:03;;;;;;;11.23;10.48;;;;;;;14.46;84.52;100487.66;5045091;28;20047;-70
2022/11/14 05:58:31;;;;;;;11.80;11.00;;;;;;;14.46;84.44;100498.91;5056726;28;20147;-68
2022/11/14 06:01:10;;;;;;;11.95;11.15;;;;;;;14.29;83.94;100482.66;5042221;28;20049;-68
2022/11/14 06:03:42;;;;;;;11.10;9.95;;;;;;;14.34;83.74;100496.59;5050655;28;20052;-73
2022/11/14 06:06:12;;;;;;;10.65;10.00;;;;;;;14.31;83.63;100502.81;5050737;28;20049;-72
2022/11/14 06:08:39;;;;;;;10.95;10.23;;;;;;;14.33;83.82;100505.34;5040695;28;20049;-72
2022/11/14 06:11:13;;;;;;;10.90;10.30;;;;;;;14.32;83.48;100504.47;5040816;28;20049;-69
2022/11/14 06:13:40;;;;;;;12.70;11.70;;;;;;;14.35;83.73;100515.09;5045042;28;20048;-69
2022/11/14 06:16:10;;;;;;;12.57;11.70;;;;;;;14.33;83.88;100503.38;5045573;28;20045;-70
2022/11/14 06:18:37;;;;;;;;;;;;;;;14.03;85.17;100506.66;5043391;28;20050;-70
2022/11/14 06:21:10;;;;;;;12.43;11.70;;;;;;;14.21;84.16;100503.00;5036832;28;20372;-71
2022/11/14 06:23:37;;;;;;;12.70;11.70;;;;;;;14.33;84.41;100511.78;5050687;28;20060;-75
2022/11/14 06:26:06;;;;;;;11.75;10.85;;;;;;;14.29;84.00;100505.13;5044063;28;20053;-75
2022/11/14 06:28:33;;;;;;;10.95;10.27;;;;;;;14.40;84.10;100517.00;5041939;28;20056;-77
2022/11/14 06:31:03;;;;;;;13.40;12.25;;;;;;;14.42;83.89;100520.34;5048229;28;20060;-72
2022/11/14 06:33:33;;;;;;;12.13;11.23;;;;;;;14.38;83.97;100528.53;5039503;28;20056;-76
2022/11/14 06:36:04;;;;;;;11.55;10.75;;;;;;;14.33;83.68;100522.19;5039776;28;20041;-81
2022/11/14 06:38:33;;;;;;;10.95;10.35;;;;;;;14.26;83.50;100528.19;5045244;28;20050;-72
2022/11/14 06:41:16;;;;;;;12.00;11.40;;;;;;;14.05;83.56;100513.66;5036531;28;20048;-68
2022/11/14 06:43:48;;;;;;;11.60;10.57;;;;;;;14.04;83.42;100525.19;5036687;28;20086;-69
2022/11/14 06:46:17;;;;;;;11.13;10.30;;;;;;;13.98;83.77;100521.59;5038913;28;20045;-69
2022/11/14 06:48:45;;;;;;;11.27;10.48;;;;;;;13.86;83.80;100522.06;5044137;28;20518;-77
2022/11/14 06:51:13;;;;;;;12.80;11.82;;;;;;;13.86;84.13;100530.50;5034112;28;20057;-68
2022/11/14 06:53:41;;;;;;;11.20;10.47;;;;;;;13.86;84.51;100538.09;5039681;28;20049;-68
2022/11/14 06:56:10;;;;;;;11.83;11.13;;;;;;;13.72;84.86;100523.97;5038858;28;20041;-70
2022/11/14 06:58:40;;;;;;;13.25;12.35;;;;;;;13.58;85.27;100518.28;5043751;28;20502;-70
2022/11/14 07:01:11;;;;;;;12.25;11.00;;;;;;;13.55;85.61;100532.06;5048690;28;20076;-69
2022/11/14 07:03:40;;;;;;;12.63;10.73;;;;;;;13.62;85.95;100533.34;5035959;28;20116;-70
2022/11/14 07:06:08;;;;;;;11.80;11.00;;;;;;;13.58;86.25;100537.09;5041822;28;20132;-65
2022/11/14 07:08:35;;;;;;;11.87;10.83;;;;;;;13.52;86.46;100537.13;5045942;28;20053;-76
2022/11/14 07:11:07;;;;;;;12.63;11.53;;;;;;;13.52;86.72;100539.09;5037481;28;20045;-71
2022/11/14 07:13:34;;;;;;;14.10;12.00;;;;;;;13.48;87.22;100549.25;5038349;28;20068;-71
2022/11/14 07:16:02;;;;;;;18.87;17.37;;;;;;;13.40;87.43;100541.50;5047334;28;20041;-68
2022/11/14 07:18:32;;;;;;;14.27;13.07;;;;;;;13.33;87.71;100550.28;5032562;28;20057;-69
2022/11/14 07:21:01;;;;;;;;;;;;;;;12.98;88.91;100551.50;5047384;28;20139;-72
2022/11/14 07:23:29;;;;;;;15.85;13.60;;;;;;;13.17;88.61;100555.22;5069666;28;19924;-67
2022/11/14 07:26:05;;;;;;;14.67;13.47;;;;;;;13.13;88.66;100545.72;5038074;28;20049;-65
2022/11/14 07:28:37;;;;;;;16.27;14.70;;;;;;;13.12;88.76;100552.44;5035328;28;20505;-65
2022/11/14 07:31:11;;;;;;;14.97;13.57;;;;;;;13.12;89.06;100562.84;5042487;28;20044;-65
2022/11/14 07:33:38;;;;;;;14.97;13.57;;;;;;;13.10;89.17;100567.94;5042263;28;20499;-65
2022/11/14 07:36:06;;;;;;;16.80;15.40;;;;;;;13.08;89.37;100562.59;5034067;28;20052;-66
2022/11/14 07:38:35;;;;;;;17.33;15.83;;;;;;;13.12;89.53;100574.06;5038562;28;20057;-65
2022/11/14 07:41:05;;;;;;;13.97;12.93;;;;;;;13.08;89.72;100572.97;5039619;28;20048;-65
2022/11/14 07:43:32;;;;;;;22.30;20.42;;;;;;;13.10;89.86;100579.13;5036739;28;20045;-65
2022/11/14 07:46:11;;;;;;;16.83;15.10;;;;;;;13.13;89.70;100578.53;5032318;28;20053;-65
2022/11/14 07:48:38;;;;;;;15.93;14.25;;;;;;;13.24;90.24;100594.16;5040434;28;20069;-65
2022/11/14 07:51:09;;;;;;;15.53;14.10;;;;;;;13.30;89.86;100589.28;5040292;28;20060;-66
2022/11/14 07:53:35;;;;;;;13.82;12.68;;;;;;;13.17;90.05;100574.84;5034537;28;20054;-65
2022/11/14 07:56:10;;;;;;;16.57;14.57;;;;;;;13.18;89.87;100570.91;5047273;28;20063;-65
2022/11/14 07:58:38;;;;;;;20.80;18.73;;;;;;;13.37;90.05;100592.63;5042181;28;20061;-65
2022/11/14 08:01:08;;;;;;;17.43;15.77;;;;;;;13.45;89.88;100589.13;5039240;28;20044;-66
2022/11/14 08:03:35;;;;;;;16.43;14.83;;;;;;;13.50;89.93;100601.16;5037258;28;20451;-67
2022/11/14 08:06:11;;;;;;;20.95;18.92;;;;;;;13.45;89.79;100595.56;5037974;28;20088;-66
2022/11/14 08:08:38;;;;;;;18.43;17.23;;;;;;;13.47;89.93;100598.09;5034716;28;20435;-65
2022/11/14 08:11:05;;;;;;;24.50;17.77;;;;;;;13.44;89.72;100593.91;5037514;28;20047;-66
2022/11/14 08:13:32;;;;;;;16.13;14.63;;;;;;;13.44;89.95;100595.88;5032365;28;20408;-67
2022/11/14 08:16:07;;;;;;;16.07;14.57;;;;;;;13.36;89.76;100585.31;5035561;28;20049;-67
2022/11/14 08:18:39;;;;;;;23.02;21.05;;;;;;;13.41;90.21;100582.47;5031674;28;20087;-68
2022/11/14 08:21:07;;;;;;;15.00;13.97;;;;;;;13.49;90.01;100605.06;5046035;28;20435;-68
2022/11/14 08:23:33;;;;;;;33.30;26.27;;;;;;;13.37;90.23;100589.81;5049794;28;20769;-67
2022/11/14 08:26:00;;;;;;;16.53;14.93;;;;;;;13.47;90.06;100601.75;5040758;28;20037;-67
2022/11/14 08:28:27;;;;;;;14.73;13.27;;;;;;;13.25;90.11;100559.34;5050691;28;20056;-67
2022/11/14 08:31:00;;;;;;;18.13;16.23;;;;;;;13.50;90.09;100600.28;5053118;28;20049;-66
2022/11/14 08:33:26;;;;;;;16.70;15.33;;;;;;;13.47;90.42;100596.13;5063118;28;20049;-67
2022/11/14 08:35:54;;;;;;;15.07;13.63;;;;;;;13.50;90.03;100606.75;5041018;28;20049;-67
2022/11/14 08:38:21;;;;;;;17.03;14.63;;;;;;;13.50;90.25;100614.31;5034465;28;20084;-68
2022/11/14 08:40:47;;;;;;;15.83;14.23;;;;;;;13.77;90.66;100610.06;5044766;28;20491;-67
2022/11/14 08:43:14;;;;;;;12.75;11.85;;;;;;;13.81;90.02;100599.91;5043475;28;20041;-65
2022/11/14 08:45:41;;;;;;;17.80;15.00;;;;;;;13.81;89.32;100625.16;5049049;28;20052;-67
2022/11/14 08:48:10;;;;;;;17.50;14.23;;;;;;;13.68;89.20;100618.31;5047391;28;20049;-67
2022/11/14 08:50:37;;;;;;;16.40;14.80;;;;;;;13.66;89.50;100615.81;5043109;28;20045;-63
2022/11/14 08:53:03;;;;;;;18.88;17.17;;;;;;;13.68;89.34;100623.94;5044585;28;20471;-65
2022/11/14 08:55:30;;;;;;;16.80;15.05;;;;;;;13.64;89.22;100612.47;5036964;28;20526;-66
2022/11/14 08:57:57;;;;;;;16.63;15.17;;;;;;;13.63;89.55;100618.38;5042569;28;20052;-66
2022/11/14 09:00:24;;;;;;;19.33;17.45;;;;;;;13.73;89.58;100635.91;5046098;28;20059;-65
2022/11/14 09:02:50;;;;;;;14.73;13.38;;;;;;;13.87;89.83;100633.22;5039744;28;20053;-67
2022/11/14 09:05:17;;;;;;;14.85;13.50;;;;;;;13.91;89.40;100634.31;5036713;28;20058;-67
2022/11/14 09:07:44;;;;;;;20.58;14.35;;;;;;;13.95;89.24;100640.97;5046779;28;20103;-66
2022/11/14 09:10:11;;;;;;;15.05;13.38;;;;;;;13.86;88.82;100637.16;5040891;28;20512;-67
2022/11/14 09:12:38;;;;;;;18.83;17.13;;;;;;;13.92;88.89;100643.56;5040961;28;20399;-67
2022/11/14 09:15:05;;;;;;;13.90;12.50;;;;;;;13.91;88.92;100651.16;5043710;28;20411;-67
2022/11/14 09:17:32;;;;;;;18.08;16.35;;;;;;;13.95;88.75;100655.03;5036833;28;20048;-65
2022/11/14 09:19:59;;;;;;;16.60;14.98;;;;;;;14.20;89.30;100655.81;5036269;28;20064;-67
2022/11/14 09:22:26;;;;;;;18.55;17.13;;;;;;;14.50;89.53;100667.75;5038303;28;20053;-66
2022/11/14 09:24:53;;;;;;;15.13;13.63;;;;;;;14.61;89.11;100658.03;5036900;28;20053;-67
2022/11/14 09:27:20;;;;;;;18.25;12.77;;;;;;;14.80;89.38;100664.50;5034455;28;20397;-67
2022/11/14 09:29:47;;;;;;;21.27;19.40;;;;;;;14.91;88.79;100657.53;5042973;28;20049;-67
2022/11/14 09:32:13;;;;;;;15.68;14.05;;;;;;;15.37;89.36;100639.81;5037089;28;20052;-67
2022/11/14 09:34:43;;;;;;;20.35;18.90;;;;;;;16.33;90.30;100658.69;5039508;28;20049;-67
2022/11/14 09:37:10;;;;;;;13.40;12.13;;;;;;;17.62;89.17;100657.13;5040436;28;20052;-67
2022/11/14 09:39:39;;;;;;;16.02;13.52;;;;;;;18.12;87.45;100662.50;5040381;28;20124;-67
2022/11/14 09:42:31;;;;;;;13.98;12.88;;;;;;;19.04;87.91;100648.25;5044062;28;20072;-67
2022/11/14 09:45:05;;;;;;;16.50;15.07;;;;;;;19.84;84.46;100654.19;5036141;28;20052;-66
2022/11/14 09:47:53;;;;;;;12.95;11.88;;;;;;;20.62;82.78;100666.25;5047405;28;20403;-67
2022/11/14 09:50:45;;;;;;;16.05;14.73;;;;;;;21.02;83.70;100653.19;5042650;28;20389;-68
2022/11/14 09:53:33;;;;;;;16.38;14.90;;;;;;;22.00;80.23;100653.41;5039703;28;20053;-66
2022/11/14 09:56:00;;;;;;;12.48;11.55;;;;;;;21.69;74.84;100642.63;5042741;28;20083;-67
2022/11/14 09:58:27;;;;;;;12.90;11.85;;;;;;;21.63;75.40;100637.50;5036277;28;20057;-67
2022/11/14 10:01:07;;;;;;;10.15;9.20;;;;;;;21.83;74.23;100636.59;5037967;28;20518;-66
2022/11/14 10:04:01;;;;;;;16.30;14.13;;;;;;;21.60;73.19;100643.91;5035275;28;20459;-67
2022/11/14 10:07:03;;;;;;;11.70;10.80;;;;;;;21.21;69.88;100644.16;5043718;28;20132;-67
2022/11/14 10:09:51;;;;;;;14.70;13.65;;;;;;;21.12;71.02;100640.56;5042062;28;20061;-67
2022/11/14 10:12:33;;;;;;;12.60;11.52;;;;;;;21.57;70.92;100631.22;5049614;28;20063;-67
2022/11/14 10:15:08;;;;;;;18.85;17.35;;;;;;;22.11;68.00;100638.69;5048512;28;20056;-67
2022/11/14 10:17:43;;;;;;;13.88;11.60;;;;;;;22.35;65.80;100637.88;5044226;28;20044;-67
2022/11/14 10:20:26;;;;;;;14.18;11.20;;;;;;;22.88;66.18;100641.53;5042344;28;20056;-68
2022/11/14 10:23:20;;;;;;;11.82;10.82;;;;;;;23.38;65.04;100637.25;5047664;28;20060;-67
2022/11/14 10:25:53;;;;;;;12.55;11.57;;;;;;;22.43;61.66;100637.75;5034359;28;20049;-67
2022/11/14 10:28:38;;;;;;;10.80;10.10;;;;;;;21.80;61.70;100634.44;5039331;28;20076;-67
2022/11/14 10:31:35;;;;;;;11.82;10.73;;;;;;;21.47;62.85;100643.91;5036185;28;20055;-68
2022/11/14 10:34:27;;;;;;;10.02;9.13;;;;;;;21.36;62.33;100628.47;5037148;28;20057;-67
2022/11/14 10:37:16;;;;;;;9.70;8.95;;;;;;;21.23;62.81;100636.13;5043824;28;20060;-68
2022/11/14 10:39:42;;;;;;;10.57;8.80;;;;;;;20.96;61.43;100637.56;5038848;28;20053;-66
2022/11/14 10:42:33;;;;;;;9.68;8.88;;;;;;;19.94;62.61;100630.31;5042644;28;20049;-66
2022/11/14 10:45:09;;;;;;;12.07;11.05;;;;;;;19.25;64.54;100636.19;5044866;28;20411;-68
2022/11/14 10:47:42;;;;;;;9.75;8.85;;;;;;;18.61;65.83;100637.75;5035773;28;20519;-67
2022/11/14 10:50:20;;;;;;;11.23;9.82;;;;;;;18.12;67.21;100639.03;5035052;28;20060;-67
2022/11/14 10:52:53;;;;;;;10.60;9.73;;;;;;;17.85;68.38;100628.84;5032493;28;20420;-68
2022/11/14 10:55:21;;;;;;;11.10;10.20;;;;;;;17.85;69.07;100646.63;5036777;28;20057;-68
2022/11/14 10:58:09;;;;;;;9.70;8.90;;;;;;;17.68;69.69;100630.41;5039622;28;20396;-68
2022/11/14 11:00:36;;;;;;;8.90;8.20;;;;;;;17.65;69.68;100638.72;5036296;28;20049;-68
2022/11/14 11:03:03;;;;;;;9.68;8.85;;;;;;;17.59;69.98;100625.88;5034380;28;20675;-67
2022/11/14 11:05:30;;;;;;;12.65;11.63;;;;;;;17.53;70.10;100617.53;5035092;28;20045;-68
2022/11/14 11:11:29;;;;;;;10.15;9.45;;;;;;;17.32;70.53;100621.28;5042920;28;20060;-69
2022/11/14 11:13:59;;;;;;;11.75;11.00;;;;;;;17.31;70.92;100613.97;5044855;28;20492;-67
2022/11/14 11:16:28;;;;;;;11.45;10.40;;;;;;;17.33;71.13;100612.47;5041878;28;20045;-68
2022/11/14 11:19:33;;;;;;;9.35;8.75;;;;;;;17.16;70.97;100620.84;5040104;28;20057;-67
2022/11/14 11:22:00;;;;;;;8.98;8.25;;;;;;;17.20;71.18;100636.00;5004494;28;20054;-68
2022/11/14 11:24:32;;;;;;;10.93;10.05;;;;;;;17.21;71.11;100632.03;5009598;28;20057;-67